New Nada — 3ELP9 — position and weather

sailwx.info

Track history (hours):
 
Tides and Currents Weather Stations Pressure Air Temp Water Temp Dewpoint Dewpoint Depression Visibility Wind Speed Wind Dir Waves Ship Positions

New Nada

Last reported at 2015-May-21 08:33 UTC. Time now 2015-May-22 22:14 UTC.
Position N 37°52' W 073°48'.

Length 180 m; beam 32.2 m.

Type: Cargo ship. MMSI: 356005000.

Date/timePositionNaut miles runAvg speedWind from/ knotsBaromVisibWave heightAir tempDewpointWater temp
2015-May-21 08:33N 37°52' W 073°48'9018.0
2015-May-21 03:33N 39°22' W 073°50'1818.0
2015-May-21 02:34N 39°40' W 073°51'1817.9
2015-May-21 01:34N 39°58' W 073°50'1817.8
2015-May-21 00:33N 40°16' W 073°49'1312.8
2015-May-20 23:33N 40°28' W 073°53'1212.0
2015-May-20 22:33N 40°37' W 074°03'5 5.0
2015-May-20 21:33N 40°40' W 074°08'1 0.9
2015-May-20 20:32N 40°41' W 074°08'0 0.0
2015-May-20 19:32N 40°41' W 074°08'0 0.0
2015-May-20 18:29N 40°41' W 074°08'0 0.0
2015-May-20 17:17N 40°41' W 074°08'0 0.0
2015-May-20 16:32N 40°41' W 074°08'0 0.0
2015-May-20 15:32N 40°41' W 074°08'0 0.0
2015-May-20 14:32N 40°41' W 074°08'0 0.0
2015-May-20 13:29N 40°41' W 074°08'0 0.0
2015-May-20 12:32N 40°41' W 074°08'0 0.0
2015-May-20 11:29N 40°41' W 074°08'0 0.0
2015-May-20 10:32N 40°41' W 074°08'0 0.0
2015-May-20 09:32N 40°41' W 074°08'0 0.0
2015-May-20 08:32N 40°41' W 074°08'0 0.0
2015-May-20 07:29N 40°41' W 074°08'0 0.0
2015-May-20 06:32N 40°41' W 074°08'0 0.0
2015-May-20 05:32N 40°41' W 074°08'0 0.0
2015-May-20 04:32N 40°41' W 074°08'0 0.0
2015-May-20 03:32N 40°41' W 074°08'0 0.0
2015-May-20 02:32N 40°41' W 074°08'0 0.0
2015-May-20 01:32N 40°41' W 074°08'0 0.1
2015-May-20 00:34N 40°41' W 074°08'3 3.2
2015-May-19 23:33N 40°39' W 074°05'1110.7
2015-May-19 22:34N 40°30' W 073°57'10 9.5
2015-May-19 21:33N 40°24' W 073°48'1111.4
2015-May-19 20:33N 40°13' W 073°45'1211.0
2015-May-19 19:27N 40°01' W 073°40'6 7.0
2015-May-19 18:33N 39°58' W 073°33'0 0.3
2015-May-19 17:33N 39°57' W 073°33'5 5.1
2015-May-19 16:32N 39°52' W 073°32'8 7.6
2015-May-19 15:32N 39°45' W 073°33'1715.6
2015-May-19 14:27N 39°28' W 073°38'1517.2
2015-May-19 13:33N 39°13' W 073°41'1817.2
2015-May-19 12:30N 38°55' W 073°44'1817.5
2015-May-19 11:28N 38°38' W 073°50'  
Track history (hours):
 
Tides and Currents Weather Stations Pressure Air Temp Water Temp Dewpoint Dewpoint Depression Visibility Wind Speed Wind Dir Waves Ship Positions

New Nada

Last reported at 2015-May-21 08:33 UTC. Time now 2015-May-22 22:14 UTC.
Position N 37°52' W 073°48'.

Length 180 m; beam 32.2 m.

Type: Cargo ship. MMSI: 356005000.

Date/timePositionNaut miles runAvg speedWind from/ knotsBaromVisibWave heightAir tempDewpointWater temp
2015-May-21 08:33N 37°52' W 073°48'9018.0
2015-May-21 03:33N 39°22' W 073°50'1818.0
2015-May-21 02:34N 39°40' W 073°51'1817.9
2015-May-21 01:34N 39°58' W 073°50'1817.8
2015-May-21 00:33N 40°16' W 073°49'1312.8
2015-May-20 23:33N 40°28' W 073°53'1212.0
2015-May-20 22:33N 40°37' W 074°03'5 5.0
2015-May-20 21:33N 40°40' W 074°08'1 0.9
2015-May-20 20:32N 40°41' W 074°08'0 0.0
2015-May-20 19:32N 40°41' W 074°08'0 0.0
2015-May-20 18:29N 40°41' W 074°08'0 0.0
2015-May-20 17:17N 40°41' W 074°08'0 0.0
2015-May-20 16:32N 40°41' W 074°08'0 0.0
2015-May-20 15:32N 40°41' W 074°08'0 0.0
2015-May-20 14:32N 40°41' W 074°08'0 0.0
2015-May-20 13:29N 40°41' W 074°08'0 0.0
2015-May-20 12:32N 40°41' W 074°08'0 0.0
2015-May-20 11:29N 40°41' W 074°08'0 0.0
2015-May-20 10:32N 40°41' W 074°08'0 0.0
2015-May-20 09:32N 40°41' W 074°08'0 0.0
2015-May-20 08:32N 40°41' W 074°08'0 0.0
2015-May-20 07:29N 40°41' W 074°08'0 0.0
2015-May-20 06:32N 40°41' W 074°08'0 0.0
2015-May-20 05:32N 40°41' W 074°08'0 0.0
2015-May-20 04:32N 40°41' W 074°08'0 0.0
2015-May-20 03:32N 40°41' W 074°08'0 0.0
2015-May-20 02:32N 40°41' W 074°08'0 0.0
2015-May-20 01:32N 40°41' W 074°08'0 0.1
2015-May-20 00:34N 40°41' W 074°08'3 3.2
2015-May-19 23:33N 40°39' W 074°05'1110.7
2015-May-19 22:34N 40°30' W 073°57'10 9.5
2015-May-19 21:33N 40°24' W 073°48'1111.4
2015-May-19 20:33N 40°13' W 073°45'1211.0
2015-May-19 19:27N 40°01' W 073°40'6 7.0
2015-May-19 18:33N 39°58' W 073°33'0 0.3
2015-May-19 17:33N 39°57' W 073°33'5 5.1
2015-May-19 16:32N 39°52' W 073°32'8 7.6
2015-May-19 15:32N 39°45' W 073°33'1715.6
2015-May-19 14:27N 39°28' W 073°38'1517.2
2015-May-19 13:33N 39°13' W 073°41'1817.2
2015-May-19 12:30N 38°55' W 073°44'1817.5
2015-May-19 11:28N 38°38' W 073°50'  

Dump ship's entire track history